Freedom, Wisconsin
Current Conditions -  °F | °C
As of 11:53 PM on Thursday 27 Nov 2014 (Local Time) from KGRB Reporting Station
Clear Clear  
Wind Chill:   Ceiling: Unl
Heat Index:   Visibility: 10mi
Dew Point: -2°   Wind: 0mph
Humidity: 83%   Direction: NA
Pressure: 30.35"   Gusts: NA
Location:  44.39°N, 88.29°W
Report Text: KGRB 280553Z 00000KT 10SM CLR M17/M19 A3035 RMK AO2 SLP296 I1000 I6000 T11671189 11111 21183 410391183 55004
Loading
Personal Weather Stations






























Interactive Weather Map New forecast layout! Learn more

10-Day Weather Forecast

Advertisements
Track Severe Weather on mobile